Time;durP1;ratioP1;P1;durP2;ratioP2;P2;SDS_P1;SDS_P2;PMS_P1;PMS_P2;Temp;Humidity;BMP_temperature;BMP_pressure;BME280_temperature;BME280_humidity;BME280_pressure;Samples;Min_cycle;Max_cycle;Signal;HPM_P1;HPM_P2
2021/04/14 00:00:05;;;;;;;4.95;2.47;;;3.60;99.90;;;;;;5018029;28;20232;-85
2021/04/14 00:02:32;;;;;;;4.38;2.40;;;3.70;99.90;;;;;;5018581;28;20255;-87
2021/04/14 00:04:58;;;;;;;5.85;2.30;;;3.80;99.90;;;;;;5025116;28;20318;-85
2021/04/14 00:07:25;;;;;;;4.45;3.03;;;3.60;99.90;;;;;;5027169;28;20220;-85
2021/04/14 00:09:52;;;;;;;4.72;2.70;;;3.70;99.90;;;;;;5016416;28;20264;-85
2021/04/14 00:12:18;;;;;;;6.45;2.80;;;3.50;99.90;;;;;;5003633;28;20303;-87
2021/04/14 00:14:45;;;;;;;4.55;2.05;;;3.50;99.90;;;;;;5002973;28;20334;-86
2021/04/14 00:17:11;;;;;;;6.65;3.03;;;3.70;99.90;;;;;;5018547;28;20208;-85
2021/04/14 00:19:38;;;;;;;7.05;3.08;;;3.50;99.90;;;;;;5017604;28;20671;-87
2021/04/14 00:22:04;;;;;;;5.85;2.60;;;3.50;99.90;;;;;;5033680;28;20720;-87
2021/04/14 00:24:31;;;;;;;4.53;2.58;;;3.50;99.90;;;;;;5028177;28;20212;-86
2021/04/14 00:26:59;;;;;;;5.93;3.08;;;3.50;99.90;;;;;;5002602;28;20216;-87
2021/04/14 00:29:25;;;;;;;4.97;2.45;;;3.40;99.90;;;;;;5006352;28;20211;-85
2021/04/14 00:31:52;;;;;;;4.45;2.42;;;3.50;99.90;;;;;;4996440;28;20382;-84
2021/04/14 00:34:20;;;;;;;4.57;2.90;;;3.40;99.90;;;;;;4997095;28;20294;-85
2021/04/14 00:36:48;;;;;;;5.57;2.42;;;3.20;99.90;;;;;;5005536;28;20290;-84
2021/04/14 00:39:17;;;;;;;5.28;3.08;;;3.40;99.90;;;;;;5011456;28;20218;-84
2021/04/14 00:41:45;;;;;;;7.70;2.72;;;3.40;99.90;;;;;;5011193;28;20231;-85
2021/04/14 00:44:12;;;;;;;3.75;2.25;;;3.50;99.90;;;;;;4997900;28;20232;-86
2021/04/14 00:46:39;;;;;;;5.00;2.70;;;3.40;99.90;;;;;;4998099;28;20264;-86
2021/04/14 00:49:05;;;;;;;5.00;2.90;;;3.50;99.90;;;;;;5012299;28;20223;-86
2021/04/14 00:51:32;;;;;;;3.95;2.70;;;3.40;99.90;;;;;;5026751;28;20319;-87
2021/04/14 00:53:59;;;;;;;6.47;2.72;;;3.40;99.90;;;;;;5019559;28;20215;-86
2021/04/14 00:56:26;;;;;;;5.15;2.50;;;3.30;99.90;;;;;;5019145;28;20250;-84
2021/04/14 00:58:52;;;;;;;4.75;2.72;;;3.10;99.90;;;;;;5018040;28;20214;-86
2021/04/14 01:01:20;;;;;;;4.05;2.08;;;3.10;99.90;;;;;;5013813;28;20220;-85
2021/04/14 01:03:47;;;;;;;8.82;2.47;;;3.30;99.90;;;;;;4998781;28;20223;-86
2021/04/14 01:06:16;;;;;;;5.38;2.60;;;3.10;99.90;;;;;;5001522;28;20255;-86
2021/04/14 01:08:42;;;;;;;3.85;2.10;;;3.10;99.90;;;;;;5018633;28;20203;-86
2021/04/14 01:11:11;;;;;;;6.75;2.72;;;3.10;99.90;;;;;;5012561;28;20203;-84
2021/04/14 01:13:37;;;;;;;5.43;2.75;;;3.00;99.90;;;;;;5017887;28;20771;-86
2021/04/14 01:16:04;;;;;;;5.13;2.60;;;3.20;99.90;;;;;;5017505;28;20235;-84
2021/04/14 01:18:34;;;;;;;5.13;2.85;;;3.30;99.90;;;;;;5004036;28;20259;-88
2021/04/14 01:21:02;;;;;;;6.90;2.08;;;3.00;99.90;;;;;;4997557;28;20216;-86
2021/04/14 01:23:31;;;;;;;5.78;2.40;;;3.30;99.90;;;;;;4996664;28;20706;-86
2021/04/14 01:25:59;;;;;;;4.88;2.40;;;3.00;99.90;;;;;;5000525;28;20343;-87
2021/04/14 01:28:29;;;;;;;5.68;2.55;;;2.90;99.90;;;;;;5017177;28;20211;-84
2021/04/14 01:30:56;;;;;;;4.85;2.47;;;3.00;99.90;;;;;;5015895;28;20231;-84
2021/04/14 01:33:25;;;;;;;4.00;2.30;;;2.90;99.90;;;;;;5015837;28;20211;-84
2021/04/14 01:35:51;;;;;;;3.80;1.80;;;2.90;99.90;;;;;;5023286;28;20271;-84
2021/04/14 01:38:17;;;;;;;4.63;2.35;;;3.10;99.90;;;;;;5001096;28;20622;-85
2021/04/14 01:40:45;;;;;;;3.92;1.90;;;2.90;99.90;;;;;;4995796;28;20292;-84
2021/04/14 01:43:11;;;;;;;4.85;2.65;;;2.80;99.90;;;;;;5013118;28;20261;-84
2021/04/14 01:45:40;;;;;;;6.07;2.45;;;2.90;99.90;;;;;;5034891;28;20694;-84
2021/04/14 01:48:07;;;;;;;4.63;2.10;;;2.80;99.90;;;;;;5012670;28;20258;-85
2021/04/14 01:50:35;;;;;;;4.10;2.08;;;2.90;99.90;;;;;;4996652;28;20230;-85
2021/04/14 01:53:02;;;;;;;5.00;2.40;;;2.80;99.90;;;;;;5017431;28;20232;-84
2021/04/14 01:55:29;;;;;;;4.50;2.53;;;2.60;99.90;;;;;;5004304;28;20258;-85
2021/04/14 01:57:59;;;;;;;4.10;2.45;;;2.80;99.90;;;;;;4996625;28;20662;-85
2021/04/14 02:00:29;;;;;;;7.50;2.40;;;2.90;99.90;;;;;;4996394;28;20208;-83
2021/04/14 02:02:56;;;;;;;5.20;2.25;;;2.70;99.90;;;;;;4997312;28;20260;-84
2021/04/14 02:05:25;;;;;;;4.15;2.10;;;2.80;99.90;;;;;;5004054;28;20224;-85
2021/04/14 02:07:51;;;;;;;4.25;2.05;;;2.60;99.90;;;;;;5020080;28;20207;-84
2021/04/14 02:10:18;;;;;;;4.70;2.20;;;2.70;99.90;;;;;;5014551;28;20659;-84
2021/04/14 02:12:44;;;;;;;5.28;2.20;;;2.80;99.90;;;;;;5005825;28;20276;-84
2021/04/14 02:15:16;;;;;;;4.60;2.20;;;2.60;99.90;;;;;;5012689;28;20223;-84
2021/04/14 02:17:42;;;;;;;4.97;2.45;;;2.80;99.90;;;;;;5021870;28;20224;-85
2021/04/14 02:20:10;;;;;;;4.03;2.00;;;2.50;99.90;;;;;;5015803;28;20383;-85
2021/04/14 02:22:37;;;;;;;3.78;2.10;;;2.70;99.90;;;;;;5024754;28;20267;-84
2021/04/14 02:25:04;;;;;;;3.63;2.40;;;2.70;99.90;;;;;;5016845;28;20248;-85
2021/04/14 02:27:31;;;;;;;5.10;2.40;;;2.70;99.90;;;;;;5008203;28;20212;-85
2021/04/14 02:29:57;;;;;;;6.32;2.15;;;2.70;99.90;;;;;;4999628;28;20236;-84
2021/04/14 02:32:24;;;;;;;3.60;2.10;;;2.70;99.90;;;;;;5004514;28;20587;-84
2021/04/14 02:34:51;;;;;;;4.90;2.38;;;2.60;99.90;;;;;;5013525;28;20210;-84
2021/04/14 02:37:17;;;;;;;4.95;2.35;;;2.60;99.90;;;;;;5006238;28;20649;-84
2021/04/14 02:39:44;;;;;;;5.70;2.03;;;2.60;99.90;;;;;;4995321;28;20590;-84
2021/04/14 02:42:11;;;;;;;4.25;2.15;;;2.50;99.90;;;;;;4995826;28;20331;-84
2021/04/14 02:44:37;;;;;;;3.97;2.10;;;2.50;99.90;;;;;;4996425;28;20232;-84
2021/04/14 02:47:04;;;;;;;4.25;1.73;;;2.50;99.90;;;;;;5000138;28;20274;-85
2021/04/14 02:49:32;;;;;;;4.82;2.83;;;2.50;99.90;;;;;;5014276;28;20228;-84
2021/04/14 02:51:58;;;;;;;4.95;2.45;;;2.60;99.90;;;;;;5013617;28;20275;-85
2021/04/14 02:54:25;;;;;;;4.68;2.13;;;2.70;99.90;;;;;;5014728;28;20220;-83
2021/04/14 02:56:52;;;;;;;5.18;2.55;;;2.50;99.90;;;;;;5019431;28;20617;-82
2021/04/14 02:59:18;;;;;;;4.22;2.35;;;2.50;99.90;;;;;;5004331;28;20204;-84
2021/04/14 03:01:45;;;;;;;6.15;2.63;;;2.60;99.90;;;;;;4998679;28;20240;-84
2021/04/14 03:04:12;;;;;;;4.05;2.30;;;2.60;99.90;;;;;;5011548;28;20331;-84
2021/04/14 03:06:39;;;;;;;4.85;2.60;;;2.60;99.90;;;;;;5019890;28;20231;-85
2021/04/14 03:09:05;;;;;;;6.18;2.28;;;2.60;99.90;;;;;;5030506;28;20222;-84
2021/04/14 03:11:32;;;;;;;5.18;2.10;;;2.40;99.90;;;;;;5023040;28;20263;-85
2021/04/14 03:13:58;;;;;;;6.35;2.47;;;2.30;99.90;;;;;;5019631;28;20647;-84
2021/04/14 03:16:26;;;;;;;3.67;2.40;;;2.50;99.90;;;;;;5024553;28;20243;-85
2021/04/14 03:18:52;;;;;;;5.63;2.55;;;2.30;99.90;;;;;;5016206;28;20208;-85
2021/04/14 03:21:20;;;;;;;4.40;2.50;;;2.30;99.90;;;;;;5022373;28;20290;-85
2021/04/14 03:23:47;;;;;;;6.43;4.35;;;2.20;99.90;;;;;;5031447;28;20706;-84
2021/04/14 03:26:14;;;;;;;3.67;1.95;;;2.50;99.90;;;;;;5029868;28;20718;-85
2021/04/14 03:28:40;;;;;;;5.18;2.45;;;2.40;99.90;;;;;;5008370;28;20216;-85
2021/04/14 03:31:07;;;;;;;6.97;2.50;;;2.40;99.90;;;;;;5023574;28;20208;-84
2021/04/14 03:33:33;;;;;;;4.70;2.10;;;2.30;99.90;;;;;;5023475;28;20448;-83
2021/04/14 03:36:00;;;;;;;7.90;2.60;;;2.30;99.90;;;;;;5031295;28;20219;-85
2021/04/14 03:38:26;;;;;;;3.72;2.20;;;2.20;99.90;;;;;;5027960;28;20199;-84
2021/04/14 03:40:53;;;;;;;4.10;2.40;;;2.30;99.90;;;;;;5029634;28;20200;-85
2021/04/14 03:43:20;;;;;;;4.65;2.40;;;2.20;99.90;;;;;;5024159;28;20759;-85
2021/04/14 03:45:49;;;;;;;4.32;2.20;;;2.00;99.90;;;;;;5016248;28;20216;-84
2021/04/14 03:48:15;;;;;;;5.00;1.95;;;2.00;99.90;;;;;;5016066;28;20652;-84
2021/04/14 03:50:41;;;;;;;5.90;2.20;;;2.20;99.90;;;;;;5038399;28;20660;-85
2021/04/14 03:53:14;;;;;;;6.13;2.78;;;2.20;99.90;;;;;;5026154;28;20293;-84
2021/04/14 03:55:40;;;;;;;5.13;2.30;;;2.20;99.90;;;;;;5047889;22;20193;31
2021/04/14 03:58:07;;;;;;;6.70;1.92;;;1.90;99.90;;;;;;5018383;28;20216;-81
2021/04/14 04:00:34;;;;;;;4.65;2.35;;;1.90;99.90;;;;;;5015807;28;20295;-81
2021/04/14 04:03:00;;;;;;;4.78;2.08;;;2.20;99.90;;;;;;5015560;28;20242;-81
2021/04/14 04:05:27;;;;;;;4.75;2.13;;;2.10;99.90;;;;;;5015549;28;20302;-80
2021/04/14 04:07:53;;;;;;;6.68;2.88;;;1.80;99.90;;;;;;5015752;28;20235;-80
2021/04/14 04:10:20;;;;;;;5.20;2.80;;;2.10;99.90;;;;;;5016777;28;20310;-81
2021/04/14 04:12:46;;;;;;;6.43;2.78;;;2.20;99.90;;;;;;5016067;28;20212;-81
2021/04/14 04:15:14;;;;;;;4.50;2.35;;;1.90;99.90;;;;;;5016726;28;20283;-80
2021/04/14 04:17:41;;;;;;;5.25;2.15;;;2.00;99.90;;;;;;5017648;28;20220;-81
2021/04/14 04:20:10;;;;;;;4.88;2.42;;;1.80;99.90;;;;;;5015985;28;20215;-80
2021/04/14 04:22:38;;;;;;;15.95;2.90;;;1.90;99.90;;;;;;5015328;28;20200;-79
2021/04/14 04:25:07;;;;;;;5.00;2.60;;;2.10;99.90;;;;;;5014002;28;20208;-80
2021/04/14 04:27:33;;;;;;;5.18;2.30;;;1.80;99.90;;;;;;5020871;28;20258;-79
2021/04/14 04:30:00;;;;;;;7.50;2.85;;;1.90;99.90;;;;;;4996924;28;20606;-80
2021/04/14 04:32:27;;;;;;;5.35;2.17;;;2.00;99.90;;;;;;5012653;28;20699;-80
2021/04/14 04:34:53;;;;;;;4.97;2.80;;;2.00;99.90;;;;;;5014660;28;20299;-79
2021/04/14 04:37:20;;;;;;;7.50;2.72;;;2.10;99.90;;;;;;5014545;28;20311;-79
2021/04/14 04:39:46;;;;;;;5.75;2.22;;;1.90;99.90;;;;;;5011193;28;20203;-80
2021/04/14 04:42:12;;;;;;;6.85;3.10;;;2.00;99.90;;;;;;4996101;28;20247;-80
2021/04/14 04:44:39;;;;;;;8.25;2.58;;;1.90;99.90;;;;;;5010206;28;20251;-80
2021/04/14 04:47:05;;;;;;;7.03;2.55;;;1.90;99.90;;;;;;5008313;28;20287;-80
2021/04/14 04:49:32;;;;;;;4.95;2.22;;;2.00;99.90;;;;;;5022919;28;20219;-78
2021/04/14 04:51:59;;;;;;;4.10;2.25;;;1.90;99.90;;;;;;5015083;28;20267;-79
2021/04/14 04:54:25;;;;;;;6.88;2.67;;;2.00;99.90;;;;;;5018401;28;20200;-79
2021/04/14 04:56:52;;;;;;;6.15;3.35;;;2.20;99.90;;;;;;5028221;28;20322;-80
2021/04/14 04:59:18;;;;;;;4.68;2.53;;;1.90;99.90;;;;;;5007457;28;20261;-80
2021/04/14 05:01:44;;;;;;;5.65;2.55;;;2.10;99.90;;;;;;5001258;28;20272;-80
2021/04/14 05:04:12;;;;;;;6.80;3.20;;;2.00;99.90;;;;;;5020631;28;20403;-80
2021/04/14 05:06:39;;;;;;;6.28;2.58;;;2.10;99.90;;;;;;5024164;28;20223;-80
2021/04/14 05:09:06;;;;;;;4.00;2.05;;;2.00;99.90;;;;;;5024967;28;20292;-80
2021/04/14 05:11:32;;;;;;;6.10;2.60;;;2.00;99.90;;;;;;5015974;28;20208;-79
2021/04/14 05:13:59;;;;;;;7.00;2.75;;;2.10;99.90;;;;;;5017042;28;20545;-80
2021/04/14 05:16:25;;;;;;;7.80;2.70;;;2.20;99.90;;;;;;5023697;28;20671;-80
2021/04/14 05:18:51;;;;;;;6.40;2.53;;;2.20;99.90;;;;;;5024175;28;20200;-81
2021/04/14 05:21:19;;;;;;;7.80;3.05;;;2.40;99.90;;;;;;5022555;28;20207;-81
2021/04/14 05:23:47;;;;;;;5.15;2.65;;;2.00;99.90;;;;;;5023022;28;20210;-82
2021/04/14 05:26:14;;;;;;;5.88;3.10;;;2.20;99.90;;;;;;5028052;28;20326;-81
2021/04/14 05:28:42;;;;;;;5.40;3.10;;;2.30;99.90;;;;;;5022301;28;20615;-81
2021/04/14 05:31:08;;;;;;;5.25;2.70;;;2.30;99.90;;;;;;5016768;28;20230;-82
2021/04/14 05:33:34;;;;;;;7.55;3.17;;;2.30;99.90;;;;;;5023989;28;20300;-81
2021/04/14 05:36:01;;;;;;;6.40;3.28;;;2.10;99.90;;;;;;5024513;28;20254;-82
2021/04/14 05:38:28;;;;;;;9.23;3.38;;;2.50;99.90;;;;;;5015573;28;20282;-81
2021/04/14 05:40:55;;;;;;;6.25;2.88;;;2.40;99.90;;;;;;5004094;28;20617;-82
2021/04/14 05:43:25;;;;;;;7.47;2.95;;;2.40;99.90;;;;;;5013925;28;20262;-77
2021/04/14 05:45:54;;;;;;;11.02;3.90;;;2.40;99.90;;;;;;5015364;28;20239;-81
2021/04/14 05:48:21;;;;;;;4.93;2.80;;;2.50;99.90;;;;;;5017590;28;20238;-82
2021/04/14 05:50:47;;;;;;;12.57;3.83;;;2.50;99.90;;;;;;5018657;28;20203;-81
2021/04/14 05:53:14;;;;;;;5.68;2.80;;;2.40;99.90;;;;;;5018775;28;20699;-82
2021/04/14 05:55:40;;;;;;;6.10;3.10;;;2.50;99.90;;;;;;5017394;28;20290;-81
2021/04/14 05:58:08;;;;;;;7.80;3.40;;;2.50;99.90;;;;;;5024433;28;20231;-82
2021/04/14 06:00:34;;;;;;;6.15;3.45;;;2.80;99.90;;;;;;5019718;28;20200;-81
2021/04/14 06:03:01;;;;;;;8.57;5.03;;;2.80;99.90;;;;;;5018637;28;20207;-82
2021/04/14 06:05:27;;;;;;;9.75;4.88;;;3.00;99.90;;;;;;5016354;28;20843;-82
2021/04/14 06:07:53;;;;;;;9.45;3.67;;;3.00;99.90;;;;;;5016411;28;20309;-81
2021/04/14 06:10:23;;;;;;;5.70;3.60;;;3.20;99.90;;;;;;5015889;28;20243;-81
2021/04/14 06:12:51;;;;;;;6.75;4.68;;;3.30;99.90;;;;;;5017823;28;20365;-80
2021/04/14 06:15:21;;;;;;;6.28;3.65;;;3.40;99.90;;;;;;5018496;28;20267;-81
2021/04/14 06:17:47;;;;;;;9.73;4.15;;;3.50;99.90;;;;;;5019709;28;20271;-81
2021/04/14 06:20:17;;;;;;;7.45;4.15;;;3.60;99.90;;;;;;5023240;28;20900;-80
2021/04/14 06:22:44;;;;;;;8.60;4.40;;;3.70;99.90;;;;;;5016619;28;20227;-81
2021/04/14 06:25:15;;;;;;;7.72;3.65;;;4.00;99.90;;;;;;5019975;28;20268;-81
2021/04/14 06:27:46;;;;;;;9.15;4.50;;;3.90;99.90;;;;;;5036723;28;20235;-81
2021/04/14 06:30:14;;;;;;;9.45;4.57;;;3.90;99.90;;;;;;5018324;28;20211;-82
2021/04/14 06:32:41;;;;;;;7.90;4.65;;;3.90;99.90;;;;;;5020601;28;20290;-82
2021/04/14 06:35:09;;;;;;;5.85;4.15;;;4.20;99.90;;;;;;5019849;28;20262;-82
2021/04/14 06:37:36;;;;;;;7.15;4.50;;;4.00;99.90;;;;;;5003262;28;20295;-81
2021/04/14 06:40:18;;;;;;;13.25;5.30;;;4.00;99.90;;;;;;5020844;28;20262;-82
2021/04/14 06:42:53;;;;;;;9.80;5.53;;;4.40;99.90;;;;;;5020112;28;20208;-81
2021/04/14 06:45:23;;;;;;;9.98;6.13;;;4.40;99.90;;;;;;5020551;28;20207;-81
2021/04/14 06:48:08;;;;;;;11.07;6.68;;;4.60;99.90;;;;;;5020536;28;20671;-82
2021/04/14 06:50:40;;;;;;;11.15;6.30;;;4.60;99.90;;;;;;5019393;28;20235;-81
2021/04/14 06:53:18;;;;;;;12.00;6.68;;;4.80;99.90;;;;;;5020122;28;20214;-81
2021/04/14 06:55:49;;;;;;;17.80;7.28;;;4.70;99.90;;;;;;5020668;28;20188;-81
2021/04/14 06:58:19;;;;;;;12.88;6.60;;;4.80;99.90;;;;;;5000327;28;20837;-81
2021/04/14 07:00:53;;;;;;;14.63;7.28;;;4.70;99.90;;;;;;5002442;28;20236;-81
2021/04/14 07:03:26;;;;;;;15.82;6.57;;;5.00;99.90;;;;;;5014148;28;20232;-80
2021/04/14 07:05:57;;;;;;;12.43;6.70;;;5.00;99.90;;;;;;5005975;28;20236;-81
2021/04/14 07:08:27;;;;;;;16.25;8.18;;;5.20;99.90;;;;;;5027383;28;20254;-82
2021/04/14 07:10:57;;;;;;;12.20;7.05;;;5.20;99.90;;;;;;5025274;28;20262;-81
2021/04/14 07:13:24;;;;;;;12.95;7.40;;;5.00;99.90;;;;;;5026599;28;20215;-80
2021/04/14 07:15:56;;;;;;;13.23;7.60;;;5.10;99.90;;;;;;5027257;28;20293;-81
2021/04/14 07:18:33;;;;;;;16.33;8.95;;;5.00;99.90;;;;;;5011464;28;20208;-81
2021/04/14 07:21:06;;;;;;;10.60;7.13;;;5.00;99.90;;;;;;5019975;28;20250;-81
2021/04/14 07:23:43;;;;;;;11.30;7.18;;;5.00;99.90;;;;;;5020518;28;20200;-81
2021/04/14 07:26:16;;;;;;;8.75;5.93;;;4.80;99.90;;;;;;5026357;28;20235;-82
2021/04/14 07:28:52;;;;;;;13.20;7.10;;;4.80;99.90;;;;;;5035780;28;20211;-82
2021/04/14 07:31:26;;;;;;;15.50;9.45;;;4.90;99.90;;;;;;5019426;28;20218;-82
2021/04/14 07:34:03;;;;;;;16.55;9.75;;;4.90;99.90;;;;;;5017050;28;20593;-81
2021/04/14 07:36:40;;;;;;;23.00;14.02;;;5.00;99.90;;;;;;4999157;28;20310;-82
2021/04/14 07:39:12;;;;;;;18.40;7.65;;;5.10;99.90;;;;;;5011360;28;20294;-81
2021/04/14 07:41:49;;;;;;;12.35;7.45;;;4.90;99.90;;;;;;5016795;28;20204;-82
2021/04/14 07:44:23;;;;;;;15.00;7.95;;;4.90;99.90;;;;;;5013033;28;20210;-82
2021/04/14 07:46:50;;;;;;;14.35;9.00;;;4.90;99.90;;;;;;5017245;28;20254;-82
2021/04/14 07:49:18;;;;;;;10.05;7.07;;;5.10;99.90;;;;;;5013221;28;20200;-81
2021/04/14 07:51:45;;;;;;;12.75;7.70;;;5.20;99.90;;;;;;5015707;28;20222;-79
2021/04/14 07:54:15;;;;;;;17.58;8.43;;;5.50;99.90;;;;;;5017735;28;20212;-78
2021/04/14 07:56:47;;;;;;;12.88;6.47;;;5.50;99.90;;;;;;5015691;28;20319;-77
2021/04/14 07:59:27;;;;;;;11.55;7.30;;;5.60;99.90;;;;;;5007061;28;20208;-78
2021/04/14 08:01:56;;;;;;;17.45;7.93;;;5.60;99.90;;;;;;5008846;28;20301;-78
2021/04/14 08:04:28;;;;;;;9.75;5.57;;;5.70;99.90;;;;;;5014208;28;20569;-77
2021/04/14 08:07:06;;;;;;;7.45;4.60;;;5.80;99.90;;;;;;5015997;28;20710;-81
2021/04/14 08:09:32;;;;;;;7.22;4.53;;;5.90;99.80;;;;;;5016096;28;20674;-81
2021/04/14 08:12:06;;;;;;;6.18;4.57;;;5.90;99.40;;;;;;5014446;28;20646;-82
2021/04/14 08:14:35;;;;;;;9.00;4.38;;;6.20;98.80;;;;;;5015853;28;20686;-81
2021/04/14 08:17:12;;;;;;;8.23;4.40;;;6.30;99.00;;;;;;5019182;28;20219;-81
2021/04/14 08:19:41;;;;;;;9.38;4.60;;;6.40;98.90;;;;;;5019426;28;20245;-81
2021/04/14 08:22:21;;;;;;;8.02;4.32;;;6.60;98.80;;;;;;5018530;28;20212;-80
2021/04/14 08:24:53;;;;;;;11.70;4.80;;;6.40;98.10;;;;;;5017940;28;20299;-80
2021/04/14 08:27:23;;;;;;;7.10;3.72;;;6.50;98.20;;;;;;5017803;28;20263;-79
2021/04/14 08:30:00;;;;;;;6.47;3.45;;;7.10;98.00;;;;;;5016688;28;20216;-79
2021/04/14 08:32:27;;;;;;;6.83;3.83;;;6.60;97.30;;;;;;5014329;28;20286;-79
2021/04/14 08:34:57;;;;;;;7.78;5.00;;;6.70;97.00;;;;;;5016425;28;20494;-79
2021/04/14 08:37:25;;;;;;;6.53;4.20;;;6.60;97.20;;;;;;5015291;28;20603;-78
2021/04/14 08:39:54;;;;;;;7.70;3.50;;;6.90;97.40;;;;;;5013498;28;20538;-79
2021/04/14 08:42:31;;;;;;;6.85;4.05;;;7.00;96.90;;;;;;5002011;28;20238;-78
2021/04/14 08:45:10;;;;;;;8.88;4.20;;;6.90;96.50;;;;;;4996706;28;20299;-80
2021/04/14 08:47:42;;;;;;;7.33;4.57;;;7.10;96.50;;;;;;5014860;28;20310;-76
2021/04/14 08:50:13;;;;;;;5.23;2.60;;;7.30;96.70;;;;;;5011679;28;20451;-77
2021/04/14 08:52:43;;;;;;;6.78;3.20;;;7.10;95.60;;;;;;5011607;28;20465;-77
2021/04/14 08:55:13;;;;;;;11.30;4.17;;;7.20;95.80;;;;;;5005179;28;20255;-82
2021/04/14 08:57:39;;;;;;;7.00;3.65;;;7.20;95.80;;;;;;5020862;28;20566;-81
2021/04/14 09:00:09;;;;;;;8.60;4.35;;;7.30;95.20;;;;;;5015605;28;20254;-80
2021/04/14 09:02:41;;;;;;;9.25;4.00;;;7.40;95.40;;;;;;5011504;28;20236;-77
2021/04/14 09:05:13;;;;;;;7.07;3.65;;;7.40;94.90;;;;;;5011778;28;20643;-76
2021/04/14 09:07:40;;;;;;;5.83;3.83;;;7.30;94.50;;;;;;5012770;28;20228;-80
2021/04/14 09:10:10;;;;;;;9.02;4.45;;;7.60;94.40;;;;;;5013791;28;20451;-81
2021/04/14 09:12:48;;;;;;;7.93;3.53;;;7.50;94.40;;;;;;4997806;28;20211;-80
2021/04/14 09:15:16;;;;;;;6.13;4.10;;;7.60;94.00;;;;;;5019595;28;20214;-81
2021/04/14 09:17:45;;;;;;;6.97;4.03;;;7.80;94.10;;;;;;5021216;28;20981;-80
2021/04/14 09:20:21;;;;;;;8.30;3.53;;;7.70;93.60;;;;;;5019895;28;20517;-81
2021/04/14 09:22:59;;;;;;;8.00;3.90;;;7.70;93.50;;;;;;5013228;28;20518;-81
2021/04/14 09:25:32;;;;;;;8.00;3.30;;;7.70;93.40;;;;;;5021938;28;20474;-80
2021/04/14 09:28:01;;;;;;;6.03;3.50;;;7.80;92.70;;;;;;5023008;28;20290;-80
2021/04/14 09:30:35;;;;;;;5.28;2.70;;;7.70;93.10;;;;;;5017760;28;20294;-81
2021/04/14 09:33:15;;;;;;;7.60;2.90;;;7.60;92.80;;;;;;5017382;28;20243;-82
2021/04/14 09:36:03;;;;;;;5.40;3.20;;;7.80;92.90;;;;;;5017006;28;20196;-81
2021/04/14 09:38:35;;;;;;;8.30;3.57;;;8.00;92.10;;;;;;5016940;28;20240;-80
2021/04/14 09:41:12;;;;;;;4.80;2.33;;;7.90;92.00;;;;;;5016434;28;20459;-81
2021/04/14 09:43:41;;;;;;;5.55;3.17;;;8.00;90.80;;;;;;5004570;28;20451;-80
2021/04/14 09:46:10;;;;;;;4.30;2.30;;;7.60;90.40;;;;;;5018933;28;20318;-80
2021/04/14 09:48:44;;;;;;;6.53;3.47;;;7.90;91.00;;;;;;5023090;28;20446;-81
2021/04/14 09:51:24;;;;;;;5.25;3.05;;;7.80;90.80;;;;;;4998386;28;20350;-83
2021/04/14 09:53:57;;;;;;;7.37;3.77;;;8.10;90.30;;;;;;4991923;28;20212;-77
2021/04/14 09:56:25;;;;;;;5.63;3.20;;;8.40;89.70;;;;;;5020711;28;20481;-79
2021/04/14 09:58:56;;;;;;;7.43;4.00;;;8.40;90.00;;;;;;5007777;28;20483;-78
2021/04/14 10:01:26;;;;;;;6.10;2.73;;;8.50;90.30;;;;;;5006803;28;21174;-80
2021/04/14 10:03:58;;;;;;;7.27;2.60;;;8.80;84.30;;;;;;5014862;28;20911;-79
2021/04/14 10:06:25;;;;;;;3.73;2.13;;;8.60;79.40;;;;;;5013598;28;20616;-79
2021/04/14 10:08:58;;;;;;;5.30;2.07;;;9.10;77.20;;;;;;5014153;28;20457;-80
2021/04/14 10:11:27;;;;;;;5.67;2.27;;;8.80;75.20;;;;;;5014729;28;20666;-79
2021/04/14 10:14:06;;;;;;;5.57;2.50;;;8.80;76.40;;;;;;5015080;28;20474;-80
2021/04/14 10:16:33;;;;;;;5.77;3.20;;;8.90;78.30;;;;;;4996947;28;20477;-80
2021/04/14 10:19:04;;;;;;;4.20;2.77;;;8.50;79.20;;;;;;4995272;28;20464;-79
2021/04/14 10:21:35;;;;;;;3.90;2.80;;;8.80;80.10;;;;;;4994119;28;20486;-80
2021/04/14 10:24:06;;;;;;;5.63;2.97;;;8.80;78.90;;;;;;4994453;28;20865;-80
2021/04/14 10:26:34;;;;;;;5.33;2.47;;;9.00;77.70;;;;;;5007259;28;20528;-79
2021/04/14 10:29:06;;;;;;;4.37;2.60;;;9.20;77.20;;;;;;5024185;28;20446;-80
2021/04/14 10:31:35;;;;;;;5.17;2.93;;;8.60;76.00;;;;;;5012279;28;20497;-80
2021/04/14 10:34:10;;;;;;;3.40;2.20;;;9.10;75.70;;;;;;4995846;28;20506;-80
2021/04/14 10:36:40;;;;;;;8.40;2.87;;;9.10;73.20;;;;;;4995582;28;20846;-80
2021/04/14 10:39:12;;;;;;;5.83;3.10;;;9.00;73.00;;;;;;4995304;28;20605;-80
2021/04/14 10:41:40;;;;;;;7.03;3.70;;;8.90;79.20;;;;;;4994859;28;21025;-80
2021/04/14 10:44:18;;;;;;;8.33;4.33;;;9.10;85.10;;;;;;4994925;28;20966;-79
2021/04/14 10:46:45;;;;;;;5.60;3.10;;;8.90;86.30;;;;;;4996017;28;20518;-80
2021/04/14 10:49:23;;;;;;;6.53;3.73;;;8.70;86.20;;;;;;5015370;28;20455;-80
2021/04/14 10:51:53;;;;;;;4.80;2.50;;;8.60;86.20;;;;;;5020889;28;20450;-79
2021/04/14 10:54:23;;;;;;;6.53;3.20;;;8.70;87.00;;;;;;5019808;28;20934;-78
2021/04/14 10:56:58;;;;;;;4.63;3.07;;;8.30;88.60;;;;;;5011929;28;20474;-78
2021/04/14 10:59:25;;;;;;;5.80;3.63;;;8.10;88.80;;;;;;5017802;28;20461;-78
2021/04/14 11:01:52;;;;;;;6.80;3.30;;;8.20;89.60;;;;;;5023512;28;20466;-78
2021/04/14 11:04:33;;;;;;;5.87;3.50;;;8.30;87.70;;;;;;5016228;28;20463;-82
2021/04/14 11:07:04;;;;;;;4.50;2.80;;;8.40;86.20;;;;;;5008506;28;20597;-80
2021/04/14 11:09:33;;;;;;;5.93;3.23;;;8.30;85.40;;;;;;5019245;28;21021;-81
2021/04/14 11:12:04;;;;;;;5.63;3.60;;;8.30;85.60;;;;;;5014648;28;20957;-79
2021/04/14 11:14:32;;;;;;;4.47;2.00;;;8.20;85.30;;;;;;5014311;28;20485;-80
2021/04/14 11:16:59;;;;;;;4.77;3.00;;;8.30;86.40;;;;;;5015823;28;20965;-80
2021/04/14 11:19:27;;;;;;;10.07;2.97;;;8.20;86.00;;;;;;5018164;28;20546;-80
2021/04/14 11:22:03;;;;;;;5.27;3.40;;;8.20;85.00;;;;;;5014260;28;20879;-81
2021/04/14 11:24:54;;;;;;;12.00;3.20;;;8.30;84.30;;;;;;5019130;28;20446;-81
2021/04/14 11:27:24;;;;;;;7.07;3.73;;;8.80;83.20;;;;;;5036239;28;20642;-82
2021/04/14 11:30:08;;;;;;;5.00;3.33;;;8.70;80.50;;;;;;5021957;28;20454;-80
2021/04/14 11:33:02;;;;;;;7.53;2.90;;;8.20;78.00;;;;;;5024743;28;20458;-80
2021/04/14 11:35:39;;;;;;;4.77;3.50;;;8.30;77.50;;;;;;5022280;28;20508;-78
2021/04/14 11:38:06;;;;;;;4.57;3.10;;;8.40;78.00;;;;;;5016095;28;20541;-80
2021/04/14 11:40:40;;;;;;;8.43;3.10;;;8.40;76.40;;;;;;5020051;28;20452;-78
2021/04/14 11:43:25;;;;;;;6.00;3.17;;;8.50;77.40;;;;;;5019232;28;20561;-80
2021/04/14 11:46:05;;;;;;;8.17;3.30;;;8.80;78.40;;;;;;5019231;28;20529;-81
2021/04/14 11:48:35;;;;;;;5.10;3.50;;;8.70;79.80;;;;;;5019147;28;20495;-81
2021/04/14 11:51:24;;;;;;;6.60;4.40;;;8.90;80.20;;;;;;5018315;28;20493;-82
2021/04/14 11:53:55;;;;;;;5.70;3.40;;;9.00;80.50;;;;;;5009853;28;20862;-81
2021/04/14 11:56:27;;;;;;;4.60;2.77;;;8.60;80.50;;;;;;5016934;28;20488;-81
2021/04/14 11:58:54;;;;;;;5.67;3.10;;;9.30;79.70;;;;;;5017898;28;20542;-81
2021/04/14 12:01:24;;;;;;;3.87;1.30;;;9.00;78.20;;;;;;5020729;28;20462;-80
2021/04/14 12:03:51;;;;;;;5.50;2.90;;;9.20;76.70;;;;;;5021522;28;20451;-79
2021/04/14 12:06:18;;;;;;;5.60;3.10;;;9.10;76.60;;;;;;5020867;28;20483;-80
2021/04/14 12:08:44;;;;;;;5.30;2.90;;;9.00;76.50;;;;;;5031001;28;20451;-79
2021/04/14 12:11:20;;;;;;;5.60;2.60;;;9.10;77.30;;;;;;4997845;28;20531;-81
2021/04/14 12:13:46;;;;;;;4.27;2.93;;;9.40;77.10;;;;;;5002722;28;20478;-80
2021/04/14 12:16:13;;;;;;;4.33;2.60;;;9.10;76.10;;;;;;5017953;28;20466;-78
2021/04/14 12:18:41;;;;;;;4.70;2.20;;;9.10;77.00;;;;;;5017700;28;20492;-78
2021/04/14 12:21:07;;;;;;;5.77;2.70;;;9.00;77.50;;;;;;5018069;28;20533;-80
2021/04/14 12:23:34;;;;;;;3.83;2.20;;;9.10;76.40;;;;;;5023623;28;20461;-81
2021/04/14 12:26:00;;;;;;;6.40;3.17;;;9.20;76.20;;;;;;5018770;28;20458;-79
2021/04/14 12:28:27;;;;;;;5.30;3.33;;;9.50;75.40;;;;;;5009091;28;20873;-76
2021/04/14 12:30:54;;;;;;;5.93;2.90;;;9.50;74.40;;;;;;5012567;28;20537;-79
2021/04/14 12:33:20;;;;;;;5.93;2.20;;;9.70;75.70;;;;;;5007985;28;20427;-80
2021/04/14 12:35:47;;;;;;;4.90;2.00;;;9.80;80.10;;;;;;5003021;28;20465;-79
2021/04/14 12:38:13;;;;;;;5.03;2.30;;;9.50;84.50;;;;;;5032111;28;20472;-80
2021/04/14 12:40:40;;;;;;;6.50;2.20;;;9.10;87.10;;;;;;5029728;28;20538;-80
2021/04/14 12:43:06;;;;;;;5.57;2.40;;;8.60;90.60;;;;;;5013928;28;20566;-79
2021/04/14 12:45:38;;;;;;;4.90;2.43;;;8.70;90.80;;;;;;5015389;28;20988;-79
2021/04/14 12:48:15;;;;;;;3.43;1.63;;;8.60;91.20;;;;;;5016844;28;20623;-79
2021/04/14 12:51:04;;;;;;;5.90;3.30;;;8.30;91.40;;;;;;5016951;28;20469;-80
2021/04/14 12:53:31;;;;;;;4.60;2.37;;;8.80;91.10;;;;;;4996191;28;20456;-79
2021/04/14 12:56:00;;;;;;;4.47;2.67;;;8.70;90.80;;;;;;4995988;28;20476;-80
2021/04/14 12:58:34;;;;;;;3.72;2.30;;;8.80;89.70;;;;;;5001218;28;20430;-80
2021/04/14 13:01:04;;;;;;;10.55;2.03;;;8.20;91.60;;;;;;5016777;28;21028;-79
2021/04/14 13:03:37;;;;;;;3.75;2.20;;;8.10;91.80;;;;;;5015929;28;20281;-79
2021/04/14 13:06:10;;;;;;;6.93;2.20;;;8.00;91.70;;;;;;5001295;28;20224;-79